sensor_id;sensor_type;location;lat;lon;timestamp;P1;durP1;ratioP1;P2;durP2;ratioP2
75135;SDS011;63707;52.212;9.540;2023-09-19T00:01:15;3.78;;;1.35;;
75135;SDS011;63707;52.212;9.540;2023-09-19T00:03:46;1.90;;;1.23;;
75135;SDS011;63707;52.212;9.540;2023-09-19T00:06:14;2.00;;;1.70;;
75135;SDS011;63707;52.212;9.540;2023-09-19T00:08:40;3.40;;;1.63;;
75135;SDS011;63707;52.212;9.540;2023-09-19T00:11:09;4.90;;;1.67;;
75135;SDS011;63707;52.212;9.540;2023-09-19T00:13:36;4.25;;;1.73;;
75135;SDS011;63707;52.212;9.540;2023-09-19T00:16:01;3.90;;;1.90;;
75135;SDS011;63707;52.212;9.540;2023-09-19T00:18:35;3.15;;;2.00;;
75135;SDS011;63707;52.212;9.540;2023-09-19T00:21:03;6.72;;;2.25;;
75135;SDS011;63707;52.212;9.540;2023-09-19T00:23:30;5.15;;;1.90;;
75135;SDS011;63707;52.212;9.540;2023-09-19T00:25:58;6.60;;;2.40;;
75135;SDS011;63707;52.212;9.540;2023-09-19T00:28:24;3.65;;;2.33;;
75135;SDS011;63707;52.212;9.540;2023-09-19T00:30:49;5.47;;;2.35;;
75135;SDS011;63707;52.212;9.540;2023-09-19T00:33:20;5.30;;;2.88;;
75135;SDS011;63707;52.212;9.540;2023-09-19T00:35:48;5.75;;;2.80;;
75135;SDS011;63707;52.212;9.540;2023-09-19T00:38:16;7.38;;;2.83;;
75135;SDS011;63707;52.212;9.540;2023-09-19T00:40:43;12.00;;;3.80;;
75135;SDS011;63707;52.212;9.540;2023-09-19T00:43:09;6.95;;;3.42;;
75135;SDS011;63707;52.212;9.540;2023-09-19T00:45:34;9.18;;;3.58;;
75135;SDS011;63707;52.212;9.540;2023-09-19T00:48:04;6.57;;;3.90;;
75135;SDS011;63707;52.212;9.540;2023-09-19T00:50:31;7.03;;;3.80;;
75135;SDS011;63707;52.212;9.540;2023-09-19T00:52:57;9.05;;;4.38;;
75135;SDS011;63707;52.212;9.540;2023-09-19T00:55:25;7.22;;;3.75;;
75135;SDS011;63707;52.212;9.540;2023-09-19T00:57:55;14.20;;;4.45;;
75135;SDS011;63707;52.212;9.540;2023-09-19T01:00:21;7.68;;;4.30;;
75135;SDS011;63707;52.212;9.540;2023-09-19T01:02:48;8.60;;;4.88;;
75135;SDS011;63707;52.212;9.540;2023-09-19T01:05:13;8.65;;;4.55;;
75135;SDS011;63707;52.212;9.540;2023-09-19T01:07:39;8.23;;;4.90;;
75135;SDS011;63707;52.212;9.540;2023-09-19T01:10:05;9.15;;;4.95;;
75135;SDS011;63707;52.212;9.540;2023-09-19T01:12:39;10.65;;;5.18;;
75135;SDS011;63707;52.212;9.540;2023-09-19T01:15:15;9.77;;;5.13;;
75135;SDS011;63707;52.212;9.540;2023-09-19T01:17:48;7.53;;;3.95;;
75135;SDS011;63707;52.212;9.540;2023-09-19T01:20:27;11.35;;;5.22;;
75135;SDS011;63707;52.212;9.540;2023-09-19T01:23:01;10.32;;;5.25;;
75135;SDS011;63707;52.212;9.540;2023-09-19T01:25:46;9.38;;;6.10;;
75135;SDS011;63707;52.212;9.540;2023-09-19T01:28:29;15.88;;;6.03;;
75135;SDS011;63707;52.212;9.540;2023-09-19T01:31:03;15.48;;;6.47;;
75135;SDS011;63707;52.212;9.540;2023-09-19T01:33:31;9.40;;;5.85;;
75135;SDS011;63707;52.212;9.540;2023-09-19T01:36:25;13.00;;;5.75;;
75135;SDS011;63707;52.212;9.540;2023-09-19T01:38:54;10.75;;;5.38;;
75135;SDS011;63707;52.212;9.540;2023-09-19T01:41:23;8.98;;;5.28;;
75135;SDS011;63707;52.212;9.540;2023-09-19T01:43:53;13.65;;;4.88;;
75135;SDS011;63707;52.212;9.540;2023-09-19T01:46:21;6.68;;;4.78;;
75135;SDS011;63707;52.212;9.540;2023-09-19T01:48:54;7.90;;;4.80;;
75135;SDS011;63707;52.212;9.540;2023-09-19T01:51:30;10.80;;;4.63;;
75135;SDS011;63707;52.212;9.540;2023-09-19T01:54:00;11.00;;;5.00;;
75135;SDS011;63707;52.212;9.540;2023-09-19T01:56:29;12.43;;;5.00;;
75135;SDS011;63707;52.212;9.540;2023-09-19T01:59:02;13.98;;;5.35;;
75135;SDS011;63707;52.212;9.540;2023-09-19T02:01:33;15.10;;;4.90;;
75135;SDS011;63707;52.212;9.540;2023-09-19T02:04:02;11.07;;;5.53;;
75135;SDS011;63707;52.212;9.540;2023-09-19T02:06:28;8.45;;;5.00;;
75135;SDS011;63707;52.212;9.540;2023-09-19T02:08:53;12.02;;;5.28;;
75135;SDS011;63707;52.212;9.540;2023-09-19T02:11:19;11.80;;;5.30;;
75135;SDS011;63707;52.212;9.540;2023-09-19T02:13:45;11.32;;;5.55;;
75135;SDS011;63707;52.212;9.540;2023-09-19T02:16:11;12.25;;;5.90;;
75135;SDS011;63707;52.212;9.540;2023-09-19T02:18:38;13.82;;;5.80;;
75135;SDS011;63707;52.212;9.540;2023-09-19T02:21:04;13.35;;;5.90;;
75135;SDS011;63707;52.212;9.540;2023-09-19T02:23:31;17.10;;;6.15;;
75135;SDS011;63707;52.212;9.540;2023-09-19T02:25:58;14.90;;;6.45;;
75135;SDS011;63707;52.212;9.540;2023-09-19T02:28:25;13.50;;;6.10;;
75135;SDS011;63707;52.212;9.540;2023-09-19T02:30:55;13.43;;;5.97;;
75135;SDS011;63707;52.212;9.540;2023-09-19T02:33:21;12.25;;;6.70;;
75135;SDS011;63707;52.212;9.540;2023-09-19T02:35:48;16.50;;;6.55;;
75135;SDS011;63707;52.212;9.540;2023-09-19T02:38:13;15.10;;;6.38;;
75135;SDS011;63707;52.212;9.540;2023-09-19T02:40:39;13.07;;;6.20;;
75135;SDS011;63707;52.212;9.540;2023-09-19T02:43:05;12.25;;;6.35;;
75135;SDS011;63707;52.212;9.540;2023-09-19T02:45:32;14.80;;;6.90;;
75135;SDS011;63707;52.212;9.540;2023-09-19T02:47:57;13.95;;;6.28;;
75135;SDS011;63707;52.212;9.540;2023-09-19T02:50:23;10.18;;;6.20;;
75135;SDS011;63707;52.212;9.540;2023-09-19T02:52:50;12.88;;;6.65;;
75135;SDS011;63707;52.212;9.540;2023-09-19T02:55:16;17.00;;;7.25;;
75135;SDS011;63707;52.212;9.540;2023-09-19T02:57:45;12.98;;;6.88;;
75135;SDS011;63707;52.212;9.540;2023-09-19T03:00:12;11.93;;;7.07;;
75135;SDS011;63707;52.212;9.540;2023-09-19T03:02:38;15.32;;;7.28;;
75135;SDS011;63707;52.212;9.540;2023-09-19T03:05:06;14.20;;;6.97;;
75135;SDS011;63707;52.212;9.540;2023-09-19T03:07:32;12.55;;;7.93;;
75135;SDS011;63707;52.212;9.540;2023-09-19T03:09:59;15.23;;;7.50;;
75135;SDS011;63707;52.212;9.540;2023-09-19T03:12:25;16.67;;;7.80;;
75135;SDS011;63707;52.212;9.540;2023-09-19T03:14:50;14.80;;;7.75;;
75135;SDS011;63707;52.212;9.540;2023-09-19T03:17:16;13.82;;;7.65;;
75135;SDS011;63707;52.212;9.540;2023-09-19T03:19:44;12.23;;;7.55;;
75135;SDS011;63707;52.212;9.540;2023-09-19T03:22:10;13.82;;;7.10;;
75135;SDS011;63707;52.212;9.540;2023-09-19T03:24:36;14.10;;;7.53;;
75135;SDS011;63707;52.212;9.540;2023-09-19T03:27:04;12.73;;;7.63;;
75135;SDS011;63707;52.212;9.540;2023-09-19T03:29:30;11.05;;;6.75;;
75135;SDS011;63707;52.212;9.540;2023-09-19T03:31:55;10.98;;;6.03;;
75135;SDS011;63707;52.212;9.540;2023-09-19T03:34:21;10.05;;;6.50;;
75135;SDS011;63707;52.212;9.540;2023-09-19T03:36:46;16.65;;;7.18;;
75135;SDS011;63707;52.212;9.540;2023-09-19T03:39:12;12.40;;;7.10;;
75135;SDS011;63707;52.212;9.540;2023-09-19T03:41:40;10.40;;;6.22;;
75135;SDS011;63707;52.212;9.540;2023-09-19T03:44:07;14.70;;;6.45;;
75135;SDS011;63707;52.212;9.540;2023-09-19T03:46:32;14.75;;;6.95;;
75135;SDS011;63707;52.212;9.540;2023-09-19T03:49:00;13.05;;;7.40;;
75135;SDS011;63707;52.212;9.540;2023-09-19T03:51:25;18.00;;;7.43;;
75135;SDS011;63707;52.212;9.540;2023-09-19T03:53:51;15.98;;;7.53;;
75135;SDS011;63707;52.212;9.540;2023-09-19T03:56:16;16.27;;;7.57;;
75135;SDS011;63707;52.212;9.540;2023-09-19T03:58:42;15.52;;;7.43;;
75135;SDS011;63707;52.212;9.540;2023-09-19T04:01:09;16.05;;;7.00;;
75135;SDS011;63707;52.212;9.540;2023-09-19T04:03:34;15.95;;;7.90;;
75135;SDS011;63707;52.212;9.540;2023-09-19T04:06:10;14.20;;;6.85;;
75135;SDS011;63707;52.212;9.540;2023-09-19T04:08:36;18.88;;;6.90;;
75135;SDS011;63707;52.212;9.540;2023-09-19T04:11:02;15.70;;;6.78;;
75135;SDS011;63707;52.212;9.540;2023-09-19T04:13:27;19.20;;;7.28;;
75135;SDS011;63707;52.212;9.540;2023-09-19T04:15:53;16.65;;;6.75;;
75135;SDS011;63707;52.212;9.540;2023-09-19T04:18:20;18.02;;;6.90;;
75135;SDS011;63707;52.212;9.540;2023-09-19T04:20:48;13.25;;;7.65;;
75135;SDS011;63707;52.212;9.540;2023-09-19T04:23:13;15.27;;;7.20;;
75135;SDS011;63707;52.212;9.540;2023-09-19T04:25:40;17.85;;;7.80;;
75135;SDS011;63707;52.212;9.540;2023-09-19T04:28:05;16.13;;;8.18;;
75135;SDS011;63707;52.212;9.540;2023-09-19T04:30:31;13.30;;;7.13;;
75135;SDS011;63707;52.212;9.540;2023-09-19T04:32:57;15.48;;;8.02;;
75135;SDS011;63707;52.212;9.540;2023-09-19T04:35:23;15.48;;;7.72;;
75135;SDS011;63707;52.212;9.540;2023-09-19T04:37:50;11.77;;;6.75;;
75135;SDS011;63707;52.212;9.540;2023-09-19T04:40:16;16.42;;;6.90;;
75135;SDS011;63707;52.212;9.540;2023-09-19T04:42:44;15.13;;;7.55;;
75135;SDS011;63707;52.212;9.540;2023-09-19T04:45:11;16.05;;;7.30;;
75135;SDS011;63707;52.212;9.540;2023-09-19T04:47:37;15.43;;;7.57;;
75135;SDS011;63707;52.212;9.540;2023-09-19T04:50:05;11.00;;;6.47;;
75135;SDS011;63707;52.212;9.540;2023-09-19T04:52:33;14.32;;;7.72;;
75135;SDS011;63707;52.212;9.540;2023-09-19T04:54:59;15.07;;;8.00;;
75135;SDS011;63707;52.212;9.540;2023-09-19T04:57:25;18.27;;;7.50;;
75135;SDS011;63707;52.212;9.540;2023-09-19T04:59:50;18.45;;;7.50;;
75135;SDS011;63707;52.212;9.540;2023-09-19T05:02:16;19.52;;;7.57;;
75135;SDS011;63707;52.212;9.540;2023-09-19T05:04:41;12.15;;;6.78;;
75135;SDS011;63707;52.212;9.540;2023-09-19T05:07:07;17.70;;;7.43;;
75135;SDS011;63707;52.212;9.540;2023-09-19T05:09:33;17.88;;;7.78;;
75135;SDS011;63707;52.212;9.540;2023-09-19T05:11:59;16.90;;;7.55;;
75135;SDS011;63707;52.212;9.540;2023-09-19T05:14:25;16.67;;;7.28;;
75135;SDS011;63707;52.212;9.540;2023-09-19T05:16:50;21.33;;;8.07;;
75135;SDS011;63707;52.212;9.540;2023-09-19T05:19:16;22.73;;;7.95;;
75135;SDS011;63707;52.212;9.540;2023-09-19T05:21:42;20.33;;;7.25;;
75135;SDS011;63707;52.212;9.540;2023-09-19T05:24:07;15.93;;;6.70;;
75135;SDS011;63707;52.212;9.540;2023-09-19T05:26:34;17.67;;;7.95;;
75135;SDS011;63707;52.212;9.540;2023-09-19T05:28:59;17.27;;;7.32;;
75135;SDS011;63707;52.212;9.540;2023-09-19T05:31:27;17.63;;;6.75;;
75135;SDS011;63707;52.212;9.540;2023-09-19T05:33:52;14.35;;;6.93;;
75135;SDS011;63707;52.212;9.540;2023-09-19T05:36:20;20.65;;;7.20;;
75135;SDS011;63707;52.212;9.540;2023-09-19T05:38:45;16.55;;;7.38;;
75135;SDS011;63707;52.212;9.540;2023-09-19T05:41:13;20.60;;;7.72;;
75135;SDS011;63707;52.212;9.540;2023-09-19T05:43:41;18.02;;;6.43;;
75135;SDS011;63707;52.212;9.540;2023-09-19T05:46:06;16.42;;;6.32;;
75135;SDS011;63707;52.212;9.540;2023-09-19T05:48:33;14.73;;;5.78;;
75135;SDS011;63707;52.212;9.540;2023-09-19T05:50:59;15.75;;;6.28;;
75135;SDS011;63707;52.212;9.540;2023-09-19T05:53:26;17.17;;;5.90;;
75135;SDS011;63707;52.212;9.540;2023-09-19T05:55:52;17.92;;;5.60;;
75135;SDS011;63707;52.212;9.540;2023-09-19T05:58:19;16.13;;;5.72;;
75135;SDS011;63707;52.212;9.540;2023-09-19T06:00:46;15.20;;;5.43;;
75135;SDS011;63707;52.212;9.540;2023-09-19T06:03:13;14.57;;;5.93;;
75135;SDS011;63707;52.212;9.540;2023-09-19T06:05:39;12.63;;;6.00;;
75135;SDS011;63707;52.212;9.540;2023-09-19T06:08:06;17.40;;;5.53;;
75135;SDS011;63707;52.212;9.540;2023-09-19T06:10:32;17.02;;;6.22;;
75135;SDS011;63707;52.212;9.540;2023-09-19T06:12:59;18.75;;;5.75;;
75135;SDS011;63707;52.212;9.540;2023-09-19T06:15:25;16.73;;;5.32;;
75135;SDS011;63707;52.212;9.540;2023-09-19T06:17:53;11.35;;;4.93;;
75135;SDS011;63707;52.212;9.540;2023-09-19T06:20:24;19.45;;;6.10;;
75135;SDS011;63707;52.212;9.540;2023-09-19T06:22:51;13.52;;;5.38;;
75135;SDS011;63707;52.212;9.540;2023-09-19T06:25:17;18.10;;;5.72;;
75135;SDS011;63707;52.212;9.540;2023-09-19T06:27:45;16.90;;;5.47;;
75135;SDS011;63707;52.212;9.540;2023-09-19T06:30:11;19.25;;;5.22;;
75135;SDS011;63707;52.212;9.540;2023-09-19T06:32:38;13.02;;;4.88;;
75135;SDS011;63707;52.212;9.540;2023-09-19T06:35:06;13.15;;;4.85;;
75135;SDS011;63707;52.212;9.540;2023-09-19T06:37:33;15.20;;;4.75;;
75135;SDS011;63707;52.212;9.540;2023-09-19T06:40:03;13.38;;;4.05;;
75135;SDS011;63707;52.212;9.540;2023-09-19T06:42:30;16.25;;;4.05;;
75135;SDS011;63707;52.212;9.540;2023-09-19T06:44:56;13.35;;;3.92;;
75135;SDS011;63707;52.212;9.540;2023-09-19T06:47:21;14.18;;;3.35;;
75135;SDS011;63707;52.212;9.540;2023-09-19T06:49:47;11.10;;;3.28;;
75135;SDS011;63707;52.212;9.540;2023-09-19T06:52:14;13.07;;;3.78;;
75135;SDS011;63707;52.212;9.540;2023-09-19T06:54:40;10.65;;;3.35;;
75135;SDS011;63707;52.212;9.540;2023-09-19T06:57:06;17.48;;;3.20;;
75135;SDS011;63707;52.212;9.540;2023-09-19T06:59:34;11.10;;;2.95;;
75135;SDS011;63707;52.212;9.540;2023-09-19T07:02:01;16.65;;;3.35;;
75135;SDS011;63707;52.212;9.540;2023-09-19T07:04:26;13.23;;;2.85;;
75135;SDS011;63707;52.212;9.540;2023-09-19T07:06:52;11.43;;;2.40;;
75135;SDS011;63707;52.212;9.540;2023-09-19T07:09:19;13.63;;;3.55;;
75135;SDS011;63707;52.212;9.540;2023-09-19T07:11:45;12.00;;;3.35;;
75135;SDS011;63707;52.212;9.540;2023-09-19T07:14:10;14.43;;;2.72;;
75135;SDS011;63707;52.212;9.540;2023-09-19T07:16:36;12.57;;;2.80;;
75135;SDS011;63707;52.212;9.540;2023-09-19T07:19:03;18.70;;;2.58;;
75135;SDS011;63707;52.212;9.540;2023-09-19T07:21:29;13.52;;;2.38;;
75135;SDS011;63707;52.212;9.540;2023-09-19T07:23:55;11.93;;;2.13;;
75135;SDS011;63707;52.212;9.540;2023-09-19T07:26:21;17.00;;;2.60;;
75135;SDS011;63707;52.212;9.540;2023-09-19T07:28:47;12.80;;;2.70;;
75135;SDS011;63707;52.212;9.540;2023-09-19T07:31:12;12.30;;;2.65;;
75135;SDS011;63707;52.212;9.540;2023-09-19T07:33:39;14.10;;;2.90;;
75135;SDS011;63707;52.212;9.540;2023-09-19T07:36:05;11.80;;;2.15;;
75135;SDS011;63707;52.212;9.540;2023-09-19T07:38:31;9.35;;;2.03;;
75135;SDS011;63707;52.212;9.540;2023-09-19T07:40:59;11.02;;;2.58;;
75135;SDS011;63707;52.212;9.540;2023-09-19T07:43:26;12.55;;;2.40;;
75135;SDS011;63707;52.212;9.540;2023-09-19T07:45:52;14.20;;;3.25;;
75135;SDS011;63707;52.212;9.540;2023-09-19T07:48:18;13.00;;;2.70;;
75135;SDS011;63707;52.212;9.540;2023-09-19T07:50:43;11.93;;;2.50;;
75135;SDS011;63707;52.212;9.540;2023-09-19T07:53:09;10.38;;;2.65;;
75135;SDS011;63707;52.212;9.540;2023-09-19T07:55:38;11.75;;;2.65;;
75135;SDS011;63707;52.212;9.540;2023-09-19T07:58:04;13.18;;;3.42;;
75135;SDS011;63707;52.212;9.540;2023-09-19T08:00:33;10.07;;;2.33;;
75135;SDS011;63707;52.212;9.540;2023-09-19T08:03:00;12.50;;;2.20;;
75135;SDS011;63707;52.212;9.540;2023-09-19T08:05:26;12.68;;;2.63;;
75135;SDS011;63707;52.212;9.540;2023-09-19T08:07:51;12.80;;;2.35;;
75135;SDS011;63707;52.212;9.540;2023-09-19T08:10:19;6.35;;;1.83;;
75135;SDS011;63707;52.212;9.540;2023-09-19T08:12:46;11.38;;;2.33;;
75135;SDS011;63707;52.212;9.540;2023-09-19T08:15:13;15.30;;;2.05;;
75135;SDS011;63707;52.212;9.540;2023-09-19T08:17:41;14.32;;;2.80;;
75135;SDS011;63707;52.212;9.540;2023-09-19T08:20:07;11.35;;;2.60;;
75135;SDS011;63707;52.212;9.540;2023-09-19T08:22:41;10.17;;;2.03;;
75135;SDS011;63707;52.212;9.540;2023-09-19T08:25:08;13.05;;;2.25;;
75135;SDS011;63707;52.212;9.540;2023-09-19T08:27:34;9.23;;;2.15;;
75135;SDS011;63707;52.212;9.540;2023-09-19T08:30:01;9.43;;;2.30;;
75135;SDS011;63707;52.212;9.540;2023-09-19T08:32:28;12.88;;;2.30;;
75135;SDS011;63707;52.212;9.540;2023-09-19T08:34:55;10.68;;;2.20;;
75135;SDS011;63707;52.212;9.540;2023-09-19T08:37:20;10.50;;;2.40;;
75135;SDS011;63707;52.212;9.540;2023-09-19T08:39:46;9.48;;;2.42;;
75135;SDS011;63707;52.212;9.540;2023-09-19T08:42:11;9.05;;;2.38;;
75135;SDS011;63707;52.212;9.540;2023-09-19T08:44:37;10.15;;;2.50;;
75135;SDS011;63707;52.212;9.540;2023-09-19T08:47:07;8.27;;;1.85;;
75135;SDS011;63707;52.212;9.540;2023-09-19T08:49:37;6.60;;;1.88;;
75135;SDS011;63707;52.212;9.540;2023-09-19T08:52:16;11.23;;;2.33;;
75135;SDS011;63707;52.212;9.540;2023-09-19T08:54:48;11.00;;;2.47;;
75135;SDS011;63707;52.212;9.540;2023-09-19T08:57:18;12.25;;;2.60;;
75135;SDS011;63707;52.212;9.540;2023-09-19T08:59:47;12.90;;;2.53;;
75135;SDS011;63707;52.212;9.540;2023-09-19T09:02:14;8.10;;;2.08;;
75135;SDS011;63707;52.212;9.540;2023-09-19T09:04:41;8.05;;;1.90;;
75135;SDS011;63707;52.212;9.540;2023-09-19T09:07:10;7.53;;;2.00;;
75135;SDS011;63707;52.212;9.540;2023-09-19T09:09:37;12.75;;;2.35;;
75135;SDS011;63707;52.212;9.540;2023-09-19T09:12:07;6.57;;;2.25;;
75135;SDS011;63707;52.212;9.540;2023-09-19T09:14:34;12.18;;;2.47;;
75135;SDS011;63707;52.212;9.540;2023-09-19T09:16:59;10.55;;;2.00;;
75135;SDS011;63707;52.212;9.540;2023-09-19T09:19:26;7.68;;;1.80;;
75135;SDS011;63707;52.212;9.540;2023-09-19T09:21:51;9.55;;;2.05;;
75135;SDS011;63707;52.212;9.540;2023-09-19T09:24:25;14.27;;;2.63;;
75135;SDS011;63707;52.212;9.540;2023-09-19T09:26:54;8.50;;;1.95;;
75135;SDS011;63707;52.212;9.540;2023-09-19T09:29:23;12.90;;;2.47;;
75135;SDS011;63707;52.212;9.540;2023-09-19T09:32:16;12.27;;;2.03;;
75135;SDS011;63707;52.212;9.540;2023-09-19T09:34:43;11.38;;;2.17;;
75135;SDS011;63707;52.212;9.540;2023-09-19T09:37:12;7.55;;;2.00;;
75135;SDS011;63707;52.212;9.540;2023-09-19T09:39:40;10.75;;;2.15;;
75135;SDS011;63707;52.212;9.540;2023-09-19T09:42:06;9.90;;;2.00;;
75135;SDS011;63707;52.212;9.540;2023-09-19T09:44:35;14.93;;;2.72;;
75135;SDS011;63707;52.212;9.540;2023-09-19T09:47:00;11.93;;;2.45;;
75135;SDS011;63707;52.212;9.540;2023-09-19T09:49:49;10.45;;;2.58;;
75135;SDS011;63707;52.212;9.540;2023-09-19T09:52:19;9.48;;;2.35;;
75135;SDS011;63707;52.212;9.540;2023-09-19T09:54:58;8.77;;;2.22;;
75135;SDS011;63707;52.212;9.540;2023-09-19T09:57:27;9.60;;;2.10;;
75135;SDS011;63707;52.212;9.540;2023-09-19T09:59:53;9.00;;;2.70;;
75135;SDS011;63707;52.212;9.540;2023-09-19T10:02:21;8.30;;;2.30;;
75135;SDS011;63707;52.212;9.540;2023-09-19T10:04:50;10.45;;;2.22;;
75135;SDS011;63707;52.212;9.540;2023-09-19T10:07:24;7.20;;;2.10;;
75135;SDS011;63707;52.212;9.540;2023-09-19T10:09:57;12.05;;;2.50;;
75135;SDS011;63707;52.212;9.540;2023-09-19T10:12:31;13.07;;;2.50;;
75135;SDS011;63707;52.212;9.540;2023-09-19T10:15:00;10.15;;;2.38;;
75135;SDS011;63707;52.212;9.540;2023-09-19T10:17:29;13.60;;;2.55;;
75135;SDS011;63707;52.212;9.540;2023-09-19T10:19:57;7.60;;;2.22;;
75135;SDS011;63707;52.212;9.540;2023-09-19T10:22:23;8.20;;;2.53;;
75135;SDS011;63707;52.212;9.540;2023-09-19T10:24:52;12.63;;;3.13;;
75135;SDS011;63707;52.212;9.540;2023-09-19T10:27:18;8.80;;;2.40;;
75135;SDS011;63707;52.212;9.540;2023-09-19T10:29:47;9.50;;;2.47;;
75135;SDS011;63707;52.212;9.540;2023-09-19T10:32:15;10.27;;;2.35;;
75135;SDS011;63707;52.212;9.540;2023-09-19T10:34:44;9.73;;;2.50;;
75135;SDS011;63707;52.212;9.540;2023-09-19T10:37:11;6.47;;;2.22;;
75135;SDS011;63707;52.212;9.540;2023-09-19T10:39:38;8.95;;;2.80;;
75135;SDS011;63707;52.212;9.540;2023-09-19T10:42:06;9.10;;;2.55;;
75135;SDS011;63707;52.212;9.540;2023-09-19T10:44:34;10.90;;;2.38;;
75135;SDS011;63707;52.212;9.540;2023-09-19T10:47:15;9.45;;;2.22;;
75135;SDS011;63707;52.212;9.540;2023-09-19T10:49:44;11.40;;;2.53;;
75135;SDS011;63707;52.212;9.540;2023-09-19T10:52:13;9.35;;;2.63;;
75135;SDS011;63707;52.212;9.540;2023-09-19T10:54:45;12.77;;;2.40;;
75135;SDS011;63707;52.212;9.540;2023-09-19T10:57:18;17.55;;;3.20;;
75135;SDS011;63707;52.212;9.540;2023-09-19T11:00:00;11.73;;;2.40;;
75135;SDS011;63707;52.212;9.540;2023-09-19T11:02:29;9.07;;;2.50;;
75135;SDS011;63707;52.212;9.540;2023-09-19T11:04:54;10.40;;;2.50;;
75135;SDS011;63707;52.212;9.540;2023-09-19T11:07:51;9.18;;;2.63;;
75135;SDS011;63707;52.212;9.540;2023-09-19T11:13:24;9.15;;;2.42;;
75135;SDS011;63707;52.212;9.540;2023-09-19T11:18:52;9.77;;;2.83;;
75135;SDS011;63707;52.212;9.540;2023-09-19T11:24:31;9.82;;;2.70;;
75135;SDS011;63707;52.212;9.540;2023-09-19T11:27:16;13.05;;;3.42;;
75135;SDS011;63707;52.212;9.540;2023-09-19T11:29:43;8.55;;;2.38;;
75135;SDS011;63707;52.212;9.540;2023-09-19T11:32:09;11.43;;;2.88;;
75135;SDS011;63707;52.212;9.540;2023-09-19T11:34:43;11.80;;;2.75;;
75135;SDS011;63707;52.212;9.540;2023-09-19T11:40:25;11.23;;;2.30;;
75135;SDS011;63707;52.212;9.540;2023-09-19T11:42:53;10.70;;;2.25;;
75135;SDS011;63707;52.212;9.540;2023-09-19T11:48:27;8.93;;;2.17;;
75135;SDS011;63707;52.212;9.540;2023-09-19T11:50:56;12.90;;;2.58;;
75135;SDS011;63707;52.212;9.540;2023-09-19T11:53:22;14.00;;;2.90;;
75135;SDS011;63707;52.212;9.540;2023-09-19T11:55:50;8.18;;;2.38;;
75135;SDS011;63707;52.212;9.540;2023-09-19T11:58:17;9.57;;;2.72;;
75135;SDS011;63707;52.212;9.540;2023-09-19T12:00:45;10.23;;;2.70;;
75135;SDS011;63707;52.212;9.540;2023-09-19T12:03:11;10.60;;;2.55;;
75135;SDS011;63707;52.212;9.540;2023-09-19T12:05:39;12.10;;;2.67;;
75135;SDS011;63707;52.212;9.540;2023-09-19T12:08:06;7.25;;;2.50;;
75135;SDS011;63707;52.212;9.540;2023-09-19T12:10:34;9.57;;;2.53;;
75135;SDS011;63707;52.212;9.540;2023-09-19T12:13:10;8.13;;;2.30;;
75135;SDS011;63707;52.212;9.540;2023-09-19T12:15:37;7.85;;;2.30;;
75135;SDS011;63707;52.212;9.540;2023-09-19T12:18:05;9.68;;;2.80;;
75135;SDS011;63707;52.212;9.540;2023-09-19T12:20:41;11.13;;;3.10;;
75135;SDS011;63707;52.212;9.540;2023-09-19T12:23:13;8.23;;;2.20;;
75135;SDS011;63707;52.212;9.540;2023-09-19T12:25:41;12.18;;;2.75;;
75135;SDS011;63707;52.212;9.540;2023-09-19T12:28:11;8.77;;;2.30;;
75135;SDS011;63707;52.212;9.540;2023-09-19T12:30:37;12.48;;;2.67;;
75135;SDS011;63707;52.212;9.540;2023-09-19T12:33:06;12.23;;;2.67;;
75135;SDS011;63707;52.212;9.540;2023-09-19T12:35:41;12.57;;;2.90;;
75135;SDS011;63707;52.212;9.540;2023-09-19T12:38:08;9.90;;;2.38;;
75135;SDS011;63707;52.212;9.540;2023-09-19T12:40:36;8.50;;;2.88;;
75135;SDS011;63707;52.212;9.540;2023-09-19T12:43:03;8.52;;;2.25;;
75135;SDS011;63707;52.212;9.540;2023-09-19T12:45:30;10.27;;;3.25;;
75135;SDS011;63707;52.212;9.540;2023-09-19T12:51:03;9.07;;;2.20;;
75135;SDS011;63707;52.212;9.540;2023-09-19T12:53:33;8.18;;;2.58;;
75135;SDS011;63707;52.212;9.540;2023-09-19T12:56:02;10.77;;;2.65;;
75135;SDS011;63707;52.212;9.540;2023-09-19T12:58:31;10.75;;;2.95;;
75135;SDS011;63707;52.212;9.540;2023-09-19T13:00:57;9.30;;;2.78;;
75135;SDS011;63707;52.212;9.540;2023-09-19T13:03:25;9.93;;;2.78;;
75135;SDS011;63707;52.212;9.540;2023-09-19T13:05:53;11.35;;;2.30;;
75135;SDS011;63707;52.212;9.540;2023-09-19T13:08:21;9.15;;;2.33;;
75135;SDS011;63707;52.212;9.540;2023-09-19T13:13:47;9.27;;;2.40;;
75135;SDS011;63707;52.212;9.540;2023-09-19T13:16:14;9.30;;;2.60;;
75135;SDS011;63707;52.212;9.540;2023-09-19T13:18:42;6.78;;;2.65;;
75135;SDS011;63707;52.212;9.540;2023-09-19T13:21:09;8.20;;;2.40;;
75135;SDS011;63707;52.212;9.540;2023-09-19T13:23:40;8.55;;;2.55;;
75135;SDS011;63707;52.212;9.540;2023-09-19T13:26:07;9.75;;;2.83;;
75135;SDS011;63707;52.212;9.540;2023-09-19T13:28:34;9.13;;;2.72;;
75135;SDS011;63707;52.212;9.540;2023-09-19T13:31:00;6.57;;;2.33;;
75135;SDS011;63707;52.212;9.540;2023-09-19T13:33:26;7.85;;;2.60;;
75135;SDS011;63707;52.212;9.540;2023-09-19T13:35:51;7.60;;;2.40;;
75135;SDS011;63707;52.212;9.540;2023-09-19T13:38:17;9.63;;;2.63;;
75135;SDS011;63707;52.212;9.540;2023-09-19T13:40:47;8.90;;;2.75;;
75135;SDS011;63707;52.212;9.540;2023-09-19T13:43:13;11.10;;;2.42;;
75135;SDS011;63707;52.212;9.540;2023-09-19T13:45:40;12.02;;;2.90;;
75135;SDS011;63707;52.212;9.540;2023-09-19T13:48:09;9.23;;;2.58;;
75135;SDS011;63707;52.212;9.540;2023-09-19T13:50:36;8.18;;;2.08;;
75135;SDS011;63707;52.212;9.540;2023-09-19T13:53:07;9.85;;;2.58;;
75135;SDS011;63707;52.212;9.540;2023-09-19T13:55:32;8.95;;;2.38;;
75135;SDS011;63707;52.212;9.540;2023-09-19T13:57:58;5.45;;;2.10;;
75135;SDS011;63707;52.212;9.540;2023-09-19T14:00:24;13.40;;;2.70;;
75135;SDS011;63707;52.212;9.540;2023-09-19T14:02:51;7.88;;;2.60;;
75135;SDS011;63707;52.212;9.540;2023-09-19T14:05:17;8.43;;;2.53;;
75135;SDS011;63707;52.212;9.540;2023-09-19T14:07:43;9.93;;;2.42;;
75135;SDS011;63707;52.212;9.540;2023-09-19T14:10:10;9.15;;;2.95;;
75135;SDS011;63707;52.212;9.540;2023-09-19T14:12:36;7.05;;;2.40;;
75135;SDS011;63707;52.212;9.540;2023-09-19T14:15:02;7.20;;;2.22;;
75135;SDS011;63707;52.212;9.540;2023-09-19T14:17:28;7.70;;;2.35;;
75135;SDS011;63707;52.212;9.540;2023-09-19T14:19:55;11.50;;;2.28;;
75135;SDS011;63707;52.212;9.540;2023-09-19T14:22:21;8.32;;;2.50;;
75135;SDS011;63707;52.212;9.540;2023-09-19T14:24:46;9.90;;;2.60;;
75135;SDS011;63707;52.212;9.540;2023-09-19T14:27:12;7.13;;;2.22;;
75135;SDS011;63707;52.212;9.540;2023-09-19T14:29:38;6.32;;;2.03;;
75135;SDS011;63707;52.212;9.540;2023-09-19T14:32:04;10.95;;;2.20;;
75135;SDS011;63707;52.212;9.540;2023-09-19T14:34:30;9.77;;;2.20;;
75135;SDS011;63707;52.212;9.540;2023-09-19T14:36:57;6.90;;;2.40;;
75135;SDS011;63707;52.212;9.540;2023-09-19T14:39:23;7.28;;;2.45;;
75135;SDS011;63707;52.212;9.540;2023-09-19T14:41:49;5.97;;;2.28;;
75135;SDS011;63707;52.212;9.540;2023-09-19T14:44:14;8.38;;;2.08;;
75135;SDS011;63707;52.212;9.540;2023-09-19T14:46:43;10.25;;;2.63;;
75135;SDS011;63707;52.212;9.540;2023-09-19T14:49:09;6.95;;;1.77;;
75135;SDS011;63707;52.212;9.540;2023-09-19T14:51:35;7.60;;;2.15;;
75135;SDS011;63707;52.212;9.540;2023-09-19T14:54:02;12.40;;;2.40;;
75135;SDS011;63707;52.212;9.540;2023-09-19T14:56:27;6.30;;;1.90;;
75135;SDS011;63707;52.212;9.540;2023-09-19T14:58:55;9.05;;;2.15;;
75135;SDS011;63707;52.212;9.540;2023-09-19T15:01:20;8.52;;;1.95;;
75135;SDS011;63707;52.212;9.540;2023-09-19T15:03:47;8.23;;;2.10;;